Direito Ao Destino — CUOC — position and weather

sailwx.info

Track history (hours):
 
Tides and Currents Weather Stations Pressure Air Temp Water Temp Dewpoint Dewpoint Depression Visibility Wind Speed Wind Dir Waves Ship Positions

Direito Ao Destino

Last reported at 2018-Apr-24 07:43 UTC. Time now 2018-Apr-24 10:49 UTC.
Position N 38°26' W 009°07'.

Length 16 m.

Type: Fishing. MMSI: 263412560.

Date/timePositionNaut miles runAvg speedWind from/ knotsBaromVisibWave heightAir tempDewpointWater temp
2018-Apr-24 07:43N 38°26' W 009°07'0 0.0
2018-Apr-24 07:21N 38°26' W 009°07'0 0.3
2018-Apr-24 06:51N 38°26' W 009°07'10 6.4
2018-Apr-24 05:17N 38°17' W 009°11'2 4.6
2018-Apr-24 04:53N 38°16' W 009°13'2 4.5
2018-Apr-24 04:28N 38°17' W 009°15'2 2.4
2018-Apr-24 03:38N 38°15' W 009°17'1 0.7
2018-Apr-24 01:59N 38°16' W 009°16'2 0.8
2018-Apr-23 23:29N 38°16' W 009°13'0 0.2
2018-Apr-23 23:00N 38°16' W 009°13'4 4.5
2018-Apr-23 22:09N 38°19' W 009°16'1 3.7
2018-Apr-23 21:57N 38°19' W 009°16'2 1.3
2018-Apr-23 20:20N 38°18' W 009°15'0 0.7
2018-Apr-23 19:57N 38°18' W 009°15'2 1.2
2018-Apr-23 18:35N 38°19' W 009°16'0 1.1
2018-Apr-23 18:29N 38°19' W 009°16'0 0.9
2018-Apr-23 18:00N 38°19' W 009°17'0 0.8
2018-Apr-23 17:30N 38°20' W 009°17'3 1.2
2018-Apr-23 14:49N 38°22' W 009°15'8 8.9
2018-Apr-23 13:57N 38°26' W 009°06'0 0.0
2018-Apr-22 07:15N 38°26' W 009°06'11 1.6
2018-Apr-22 00:05N 38°16' W 009°13'0 1.0
2018-Apr-21 23:59N 38°16' W 009°12'0 0.8
2018-Apr-21 23:30N 38°16' W 009°12'0 0.7
2018-Apr-21 23:00N 38°16' W 009°12'3 5.1
2018-Apr-21 22:28N 38°18' W 009°14'2 4.8
2018-Apr-21 21:58N 38°19' W 009°16'1 3.0
2018-Apr-21 21:29N 38°20' W 009°18'1 0.6
2018-Apr-21 19:13N 38°19' W 009°17'0 1.2
2018-Apr-21 18:55N 38°20' W 009°17'1 1.1
2018-Apr-21 18:19N 38°20' W 009°18'0 0.9
2018-Apr-21 17:54N 38°20' W 009°18'1 0.3
2018-Apr-21 15:31N 38°21' W 009°18'10 7.7
2018-Apr-21 14:09N 38°26' W 009°06'0 0.0
2018-Apr-20 17:06N 38°26' W 009°07'0 0.0
2018-Apr-20 16:50N 38°26' W 009°07'10 2.2
2018-Apr-20 12:20N 38°17' W 009°11'5 0.6
2018-Apr-20 04:31N 38°19' W 009°16'2 1.1
2018-Apr-20 02:50N 38°18' W 009°15'0 0.3
2018-Apr-20 02:22N 38°18' W 009°15'0 1.0
2018-Apr-20 02:00N 38°18' W 009°15'1 1.6
2018-Apr-20 01:29N 38°19' W 009°16'2 1.2
2018-Apr-19 23:58N 38°20' W 009°18'1 0.4
2018-Apr-19 22:47N 38°20' W 009°18'0 0.4
2018-Apr-19 22:29N 38°20' W 009°17'0 0.2
2018-Apr-19 21:59N 38°21' W 009°17'1 1.7
2018-Apr-19 21:30N 38°21' W 009°17'5 8.9
2018-Apr-19 20:59N 38°24' W 009°12'4 9.1
2018-Apr-19 20:30N 38°26' W 009°07'0 0.0
2018-Apr-18 18:17N 38°26' W 009°07'2 6.2
2018-Apr-18 18:00N 38°25' W 009°07'4 8.4
2018-Apr-18 17:29N 38°21' W 009°09'4 8.5
2018-Apr-18 17:00N 38°17' W 009°11'2 4.6
2018-Apr-18 16:30N 38°17' W 009°14'3 5.0
2018-Apr-18 15:49N 38°16' W 009°18'0 1.4
2018-Apr-18 15:29N 38°16' W 009°18'3 4.2
2018-Apr-18 14:49N 38°18' W 009°15'2 4.5
2018-Apr-18 14:28N 38°19' W 009°17'2 2.4
2018-Apr-18 13:49N 38°21' W 009°18'4 4.8
2018-Apr-18 12:59N 38°23' W 009°13'5 8.1
2018-Apr-18 12:22N 38°25' W 009°08'1 3.5
2018-Apr-18 12:00N 38°26' W 009°07'  
Track history (hours):
 
Tides and Currents Weather Stations Pressure Air Temp Water Temp Dewpoint Dewpoint Depression Visibility Wind Speed Wind Dir Waves Ship Positions

Direito Ao Destino

Last reported at 2018-Apr-24 07:43 UTC. Time now 2018-Apr-24 10:49 UTC.
Position N 38°26' W 009°07'.

Length 16 m.

Type: Fishing. MMSI: 263412560.

Date/timePositionNaut miles runAvg speedWind from/ knotsBaromVisibWave heightAir tempDewpointWater temp
2018-Apr-24 07:43N 38°26' W 009°07'0 0.0
2018-Apr-24 07:21N 38°26' W 009°07'0 0.3
2018-Apr-24 06:51N 38°26' W 009°07'10 6.4
2018-Apr-24 05:17N 38°17' W 009°11'2 4.6
2018-Apr-24 04:53N 38°16' W 009°13'2 4.5
2018-Apr-24 04:28N 38°17' W 009°15'2 2.4
2018-Apr-24 03:38N 38°15' W 009°17'1 0.7
2018-Apr-24 01:59N 38°16' W 009°16'2 0.8
2018-Apr-23 23:29N 38°16' W 009°13'0 0.2
2018-Apr-23 23:00N 38°16' W 009°13'4 4.5
2018-Apr-23 22:09N 38°19' W 009°16'1 3.7
2018-Apr-23 21:57N 38°19' W 009°16'2 1.3
2018-Apr-23 20:20N 38°18' W 009°15'0 0.7
2018-Apr-23 19:57N 38°18' W 009°15'2 1.2
2018-Apr-23 18:35N 38°19' W 009°16'0 1.1
2018-Apr-23 18:29N 38°19' W 009°16'0 0.9
2018-Apr-23 18:00N 38°19' W 009°17'0 0.8
2018-Apr-23 17:30N 38°20' W 009°17'3 1.2
2018-Apr-23 14:49N 38°22' W 009°15'8 8.9
2018-Apr-23 13:57N 38°26' W 009°06'0 0.0
2018-Apr-22 07:15N 38°26' W 009°06'11 1.6
2018-Apr-22 00:05N 38°16' W 009°13'0 1.0
2018-Apr-21 23:59N 38°16' W 009°12'0 0.8
2018-Apr-21 23:30N 38°16' W 009°12'0 0.7
2018-Apr-21 23:00N 38°16' W 009°12'3 5.1
2018-Apr-21 22:28N 38°18' W 009°14'2 4.8
2018-Apr-21 21:58N 38°19' W 009°16'1 3.0
2018-Apr-21 21:29N 38°20' W 009°18'1 0.6
2018-Apr-21 19:13N 38°19' W 009°17'0 1.2
2018-Apr-21 18:55N 38°20' W 009°17'1 1.1
2018-Apr-21 18:19N 38°20' W 009°18'0 0.9
2018-Apr-21 17:54N 38°20' W 009°18'1 0.3
2018-Apr-21 15:31N 38°21' W 009°18'10 7.7
2018-Apr-21 14:09N 38°26' W 009°06'0 0.0
2018-Apr-20 17:06N 38°26' W 009°07'0 0.0
2018-Apr-20 16:50N 38°26' W 009°07'10 2.2
2018-Apr-20 12:20N 38°17' W 009°11'5 0.6
2018-Apr-20 04:31N 38°19' W 009°16'2 1.1
2018-Apr-20 02:50N 38°18' W 009°15'0 0.3
2018-Apr-20 02:22N 38°18' W 009°15'0 1.0
2018-Apr-20 02:00N 38°18' W 009°15'1 1.6
2018-Apr-20 01:29N 38°19' W 009°16'2 1.2
2018-Apr-19 23:58N 38°20' W 009°18'1 0.4
2018-Apr-19 22:47N 38°20' W 009°18'0 0.4
2018-Apr-19 22:29N 38°20' W 009°17'0 0.2
2018-Apr-19 21:59N 38°21' W 009°17'1 1.7
2018-Apr-19 21:30N 38°21' W 009°17'5 8.9
2018-Apr-19 20:59N 38°24' W 009°12'4 9.1
2018-Apr-19 20:30N 38°26' W 009°07'0 0.0
2018-Apr-18 18:17N 38°26' W 009°07'2 6.2
2018-Apr-18 18:00N 38°25' W 009°07'4 8.4
2018-Apr-18 17:29N 38°21' W 009°09'4 8.5
2018-Apr-18 17:00N 38°17' W 009°11'2 4.6
2018-Apr-18 16:30N 38°17' W 009°14'3 5.0
2018-Apr-18 15:49N 38°16' W 009°18'0 1.4
2018-Apr-18 15:29N 38°16' W 009°18'3 4.2
2018-Apr-18 14:49N 38°18' W 009°15'2 4.5
2018-Apr-18 14:28N 38°19' W 009°17'2 2.4
2018-Apr-18 13:49N 38°21' W 009°18'4 4.8
2018-Apr-18 12:59N 38°23' W 009°13'5 8.1
2018-Apr-18 12:22N 38°25' W 009°08'1 3.5
2018-Apr-18 12:00N 38°26' W 009°07'  

Dump ship's entire track history